Terminal Aerodrome Forecast
Issued by NWS Pueblo, CO

Home | Current Version | Previous Version | Text Only | Print | Product List | Glossary On
Versions: 1 2 3 4 5 6 7 8 9 10 11 12 13 14
000
FTUS45 KPUB 202320
TAFCOS
TAF
KCOS 202320Z 2100/2124 02012KT P6SM VCSH SCT070 BKN090
     FM210200 35007KT P6SM FEW090 SCT150
     FM210800 35013KT P6SM SCT100 SCT150
     FM211400 35009KT P6SM FEW100 SCT150
     FM211700 16012KT P6SM FEW060 BKN100=

USA.gov is the U.S. government's official web portal to all federal, state and local government web resources and services.